Погода Аль-Вакрана неделю

Доха, Катар

04 - 10 сентября
  • 04сентября
    Сегодня
    +30°
    +39°
    Ясно и безоблачно
    ВремяПогодаТемператураВлажностьДавлениеВетер, м/сВероятность осадков
    00:00Ясно и безоблачно+32°C67 %751 мм1.0 м/с0 %
    03:00Практически безоблачно+30°C77 %750 мм1.4 м/с0 %
    06:00Ясно и безоблачно+30°C75 %751 мм2.4 м/с0 %
    09:00Ясно и безоблачно+38°C25 %752 мм0.5 м/с0 %
    12:00Ясно и безоблачно+38°C48 %751 мм5.8 м/с0 %
    15:00Ясно и безоблачно+38°C44 %750 мм5.3 м/с0 %
    18:00Небольшая облачность+35°C55 %751 мм4.6 м/с0 %
    21:00Ясно и безоблачно+34°C66 %752 мм3.1 м/с0 %
  • 05сентября
    Суббота
    +31°
    +40°
    Ясно и безоблачно
    ВремяПогодаТемператураВлажностьДавлениеВетер, м/сВероятность осадков
    00:00Ясно и безоблачно+33°C72 %751 мм3.9 м/с0 %
    03:00Ясно и безоблачно+31°C77 %751 мм2.6 м/с0 %
    06:00Ясно и безоблачно+32°C77 %752 мм4.0 м/с0 %
    09:00Ясно и безоблачно+37°C53 %754 мм0.2 м/с0 %
    12:00Ясно и безоблачно+39°C47 %753 мм3.8 м/с0 %
    15:00Ясно и безоблачно+38°C54 %752 мм4.0 м/с1 %
    18:00Ясно и безоблачно+36°C68 %752 мм5.2 м/с0 %
    21:00Ясно и безоблачно+35°C74 %753 мм3.9 м/с0 %
  • 06сентября
    Воскресенье
    +31°
    +40°
    Ясно и безоблачно
    ВремяПогодаТемператураВлажностьДавлениеВетер, м/сВероятность осадков
    00:00Ясно и безоблачно+33°C78 %753 мм2.2 м/с0 %
    03:00Ясно и безоблачно+32°C76 %752 мм1.0 м/с0 %
    06:00Ясно и безоблачно+33°C67 %753 мм1.0 м/с0 %
    09:00Ясно и безоблачно+37°C55 %754 мм3.6 м/с0 %
    12:00Ясно и безоблачно+40°C50 %753 мм4.2 м/с0 %
    15:00Ясно и безоблачно+39°C50 %752 мм4.9 м/с3 %
    18:00Ясно и безоблачно+37°C65 %752 мм4.2 м/с0 %
    21:00Ясно и безоблачно+35°C71 %753 мм2.9 м/с0 %
  • 07сентября
    Понедельник
    +32°
    +42°
    Ясно и безоблачно
    ВремяПогодаТемператураВлажностьДавлениеВетер, м/сВероятность осадков
    00:00Ясно и безоблачно+34°C77 %753 мм2.0 м/с0 %
    03:00Ясно и безоблачно+33°C80 %752 мм1.3 м/с0 %
    06:00Ясно и безоблачно+32°C84 %753 мм2.3 м/с0 %
    09:00Ясно и безоблачно+38°C50 %755 мм2.9 м/с0 %
    12:00Ясно и безоблачно+42°C38 %753 мм4.1 м/с0 %
    15:00Ясно и безоблачно+41°C42 %751 мм6.1 м/с0 %
    18:00Ясно и безоблачно+38°C58 %751 мм3.9 м/с1 %
    21:00Ясно и безоблачно+36°C61 %752 мм2.4 м/с0 %
  • 08сентября
    Вторник
    +32°
    +44°
    Ясно и безоблачно
    ВремяПогодаТемператураВлажностьДавлениеВетер, м/сВероятность осадков
    00:00Ясно и безоблачно+34°C59 %752 мм1.1 м/с0 %
    03:00Ясно и безоблачно+33°C71 %751 мм2.5 м/с0 %
    06:00Ясно и безоблачно+33°C64 %752 мм3.8 м/с0 %
    09:00Ясно и безоблачно+40°C32 %753 мм4.0 м/с0 %
    12:00Ясно и безоблачно+43°C24 %752 мм2.5 м/с0 %
    15:00Ясно и безоблачно+43°C34 %750 мм3.4 м/с0 %
    18:00Ясно и безоблачно+38°C59 %751 мм2.8 м/с2 %
    21:00Практически безоблачно+36°C67 %751 мм3.8 м/с0 %
  • 09сентября
    Среда
    +31°
    +44°
    Ясно и безоблачно
    ВремяПогодаТемператураВлажностьДавлениеВетер, м/сВероятность осадков
    03:00Ясно и безоблачно+33°C63 %750 мм3.3 м/с0 %
    09:00Ясно и безоблачно+40°C22 %753 мм2.6 м/с0 %
    15:00Ясно и безоблачно+43°C41 %750 мм3.5 м/с0 %
    21:00Ясно и безоблачно+36°C67 %752 мм4.1 м/с0 %
  • 10сентября
    Четверг
    +31°
    +43°
    Ясно и безоблачно
    ВремяПогодаТемператураВлажностьДавлениеВетер, м/сВероятность осадков
    03:00Ясно и безоблачно+32°C71 %751 мм1.6 м/с0 %
    09:00Ясно и безоблачно+40°C42 %754 мм3.5 м/с0 %
    15:00Ясно и безоблачно+41°C30 %753 мм5.4 м/с0 %
    21:00Ясно и безоблачно+35°C52 %754 мм2.9 м/с0 %
Мы используем cookies
Соглашаюсь